createdAt,value
2023-04-24T04:55:23.439Z,13.80
2023-04-24T05:00:27.281Z,14.00
2023-04-24T05:05:30.766Z,14.50
2023-04-24T05:10:35.832Z,15.00
2023-04-24T05:15:39.575Z,15.30
2023-04-24T05:20:44.705Z,15.60
2023-04-24T05:25:49.694Z,15.80
2023-04-24T05:30:53.088Z,16.00
2023-04-24T05:35:57.125Z,16.10
2023-04-24T05:41:02.353Z,16.30
2023-04-24T05:46:05.923Z,16.40
2023-04-24T05:51:09.358Z,16.50
2023-04-24T05:56:14.192Z,16.60
2023-04-24T06:01:17.693Z,16.70
2023-04-24T06:06:21.442Z,16.80
2023-04-24T06:11:26.451Z,16.80
2023-04-24T06:16:29.895Z,17.00
2023-04-24T06:21:33.580Z,17.10
2023-04-24T06:26:38.406Z,17.10
2023-04-24T06:31:41.821Z,17.10
2023-04-24T06:36:45.602Z,17.20
2023-04-24T06:41:50.379Z,17.20
2023-04-24T06:46:53.930Z,17.10
2023-04-24T06:51:57.378Z,17.20
2023-04-24T06:57:03.478Z,17.30
2023-04-24T07:02:07.377Z,17.40
2023-04-24T07:07:14.061Z,17.50
2023-04-24T07:12:21.554Z,17.60
2023-04-24T07:17:25.063Z,17.70
2023-04-24T07:22:28.542Z,17.80
2023-04-24T07:27:33.357Z,17.80
2023-04-24T07:32:37.039Z,17.80
2023-04-24T07:37:40.934Z,17.90
2023-04-24T07:42:45.834Z,18.00
2023-04-24T07:47:49.350Z,18.10
2023-04-24T07:52:52.773Z,18.20
2023-04-24T07:57:57.555Z,18.30
2023-04-24T08:03:01.137Z,18.50
2023-04-24T08:08:04.752Z,18.60
2023-04-24T08:13:09.584Z,18.70
2023-04-24T08:18:14.554Z,18.70
2023-04-24T08:23:17.999Z,18.70
2023-04-24T08:28:23.180Z,18.60
2023-04-24T08:33:26.781Z,18.60
2023-04-24T08:38:30.805Z,18.60
2023-04-24T08:43:37.526Z,18.60
2023-04-24T08:48:41.514Z,18.70
2023-04-24T08:53:45.561Z,18.80
2023-04-24T08:58:50.691Z,18.80
2023-04-24T09:03:55.462Z,18.80
2023-04-24T09:09:02.281Z,19.00
2023-04-24T09:14:07.269Z,19.10
2023-04-24T09:19:10.951Z,19.40
2023-04-24T09:24:18.778Z,19.60
2023-04-24T09:29:23.598Z,19.80
2023-04-24T09:34:28.711Z,20.10
2023-04-24T09:39:32.368Z,20.10
2023-04-24T09:44:37.183Z,20.20
2023-04-24T09:49:42.541Z,20.20
2023-04-24T09:54:55.159Z,20.10
2023-04-24T09:59:59.992Z,20.00
2023-04-24T10:05:03.443Z,20.00
2023-04-24T10:10:08.157Z,20.00
2023-04-24T10:15:14.869Z,20.00
2023-04-24T10:20:19.178Z,20.10
2023-04-24T10:25:24.797Z,20.10
2023-04-24T10:30:31.122Z,20.00
2023-04-24T10:35:42.624Z,20.00
2023-04-24T10:40:46.776Z,20.00
2023-04-24T10:46:05.013Z,20.10
2023-04-24T10:51:14.375Z,20.20
2023-04-24T10:56:18.521Z,20.10
2023-04-24T11:01:31.390Z,20.00
2023-04-24T11:06:37.116Z,19.90
2023-04-24T11:11:46.829Z,19.80
2023-04-24T11:16:56.285Z,19.80
2023-04-24T11:22:02.729Z,19.90
2023-04-24T11:27:14.915Z,20.00
2023-04-24T11:32:30.652Z,20.00
2023-04-24T11:37:37.539Z,20.20
2023-04-24T11:42:43.562Z,20.30
2023-04-24T11:47:49.018Z,20.40
2023-04-24T11:52:52.794Z,20.50
2023-04-24T11:57:58.522Z,20.60
2023-04-24T12:03:11.601Z,20.60
2023-04-24T12:08:29.402Z,20.50
2023-04-24T12:13:36.675Z,20.30
2023-04-24T12:18:46.116Z,20.20
2023-04-24T12:23:50.029Z,20.10
2023-04-24T12:28:53.396Z,20.10
2023-04-24T12:33:58.201Z,20.10
2023-04-24T12:39:01.948Z,19.90
2023-04-24T12:44:05.516Z,19.70
2023-04-24T12:49:10.357Z,19.60
2023-04-24T12:54:14.061Z,19.60
2023-04-24T12:59:17.506Z,19.60
2023-04-24T13:04:22.414Z,19.50
2023-04-24T13:09:26.053Z,19.50
2023-04-24T13:14:29.710Z,19.40
2023-04-24T13:19:39.982Z,19.30
2023-04-24T13:24:43.460Z,19.10
2023-04-24T13:29:48.242Z,18.30
2023-04-24T13:34:53.311Z,17.80
2023-04-24T13:39:56.706Z,17.40
2023-04-24T13:45:02.281Z,17.00
2023-04-24T13:50:10.457Z,16.70
2023-04-24T13:55:14.196Z,16.60
2023-04-24T14:00:18.892Z,16.30
2023-04-24T14:05:23.775Z,16.10
2023-04-24T14:10:28.204Z,16.00
2023-04-24T14:15:31.758Z,16.00
2023-04-24T14:20:36.622Z,15.90
2023-04-24T14:25:40.037Z,15.70
2023-04-24T14:30:44.145Z,15.70
2023-04-24T14:35:49.293Z,15.70
2023-04-24T14:41:06.199Z,15.70
2023-04-24T14:46:11.344Z,15.70
2023-04-24T14:51:16.218Z,15.70
2023-04-24T14:56:19.695Z,15.90
2023-04-24T15:01:23.591Z,16.00
2023-04-24T15:06:28.709Z,16.00
2023-04-24T15:11:32.286Z,15.70
2023-04-24T15:16:36.326Z,15.40
2023-04-24T15:21:42.499Z,15.20
2023-04-24T15:26:45.981Z,15.20
2023-04-24T15:31:49.584Z,15.20
2023-04-24T15:36:54.619Z,15.20
2023-04-24T15:41:58.599Z,15.20
2023-04-24T15:47:03.726Z,15.10
2023-04-24T15:52:10.554Z,15.10
2023-04-24T15:57:14.208Z,15.30
2023-04-24T16:02:19.386Z,15.30
2023-04-24T16:07:24.566Z,15.50
2023-04-24T16:12:28.697Z,15.50
2023-04-24T16:17:32.456Z,15.50
2023-04-24T16:22:37.453Z,15.60
2023-04-24T16:27:40.891Z,15.60
2023-04-24T16:32:44.410Z,15.70
2023-04-24T16:37:49.207Z,15.70
2023-04-24T16:42:52.935Z,15.70
2023-04-24T16:47:56.834Z,15.70
2023-04-24T16:53:01.607Z,15.70
2023-04-24T16:58:05.017Z,15.80
2023-04-24T17:03:09.878Z,15.90
2023-04-24T17:08:16.569Z,15.80
2023-04-24T17:13:20.385Z,15.60
2023-04-24T17:18:24.400Z,15.40
2023-04-24T17:23:29.426Z,15.30
2023-04-24T17:28:33.863Z,15.40
2023-04-24T17:33:37.273Z,15.50
2023-04-24T17:38:42.345Z,15.50
2023-04-24T17:43:46.298Z,15.60
2023-04-24T17:48:49.970Z,15.70
2023-04-24T17:53:54.742Z,15.80
2023-04-24T17:58:59.070Z,15.90
2023-04-24T18:04:02.650Z,15.90
2023-04-24T18:09:08.399Z,15.80
2023-04-24T18:14:11.843Z,15.80
2023-04-24T18:19:15.424Z,15.70
2023-04-24T18:24:22.332Z,15.60
2023-04-24T18:29:25.884Z,15.60
2023-04-24T18:34:31.187Z,15.50
2023-04-24T18:39:36.162Z,15.50
2023-04-24T18:44:41.112Z,15.50
2023-04-24T18:49:45.099Z,15.60
2023-04-24T18:54:50.611Z,15.60
2023-04-24T18:59:54.142Z,15.60
2023-04-24T19:04:57.724Z,15.70
2023-04-24T19:10:02.555Z,15.70
2023-04-24T19:15:07.084Z,15.70
2023-04-24T19:20:11.166Z,15.70
2023-04-24T19:25:16.004Z,15.70
2023-04-24T19:30:19.486Z,15.70
2023-04-24T19:35:23.950Z,15.70
2023-04-24T19:40:29.033Z,15.70
2023-04-24T19:45:35.078Z,15.60
2023-04-24T19:50:39.065Z,15.60
2023-04-24T19:55:43.811Z,15.60
2023-04-24T20:00:48.128Z,15.50
2023-04-24T20:05:52.510Z,15.40
2023-04-24T20:10:58.620Z,15.30
2023-04-24T20:16:03.043Z,15.20
2023-04-24T20:21:07.157Z,15.10
2023-04-24T20:26:12.814Z,15.00
2023-04-24T20:31:16.940Z,15.00
2023-04-24T20:36:20.754Z,14.90
2023-04-24T20:41:26.669Z,14.80
2023-04-24T20:46:30.563Z,14.80
2023-04-24T20:51:34.527Z,14.80
2023-04-24T20:56:39.395Z,14.70
2023-04-24T21:01:44.340Z,14.60
2023-04-24T21:06:47.889Z,14.30
2023-04-24T21:11:52.716Z,14.10
2023-04-24T21:16:57.532Z,13.80
2023-04-24T21:22:01.265Z,13.60
2023-04-24T21:27:07.460Z,13.60
2023-04-24T21:32:11.243Z,13.60
2023-04-24T21:37:15.537Z,13.60
2023-04-24T21:42:21.126Z,13.60
2023-04-24T21:47:24.541Z,13.40
2023-04-24T21:52:27.962Z,13.40
2023-04-24T21:57:33.002Z,13.30
2023-04-24T22:02:36.651Z,13.20
2023-04-24T22:07:40.141Z,13.10
2023-04-24T22:12:45.564Z,13.00
2023-04-24T22:17:49.688Z,12.80
2023-04-24T22:22:53.496Z,12.70
2023-04-24T22:27:58.312Z,12.70
